createdAt,value
2023-08-08T00:00:23.085Z,11.84
2023-08-08T00:03:28.582Z,11.87
2023-08-08T00:06:32.353Z,11.81
2023-08-08T00:09:36.314Z,11.91
2023-08-08T00:12:40.025Z,11.88
2023-08-08T00:15:44.353Z,11.85
2023-08-08T00:18:50.990Z,11.86
2023-08-08T00:21:54.729Z,11.84
2023-08-08T00:24:58.615Z,11.89
2023-08-08T00:28:02.320Z,11.84
2023-08-08T00:31:06.169Z,11.79
2023-08-08T00:34:11.135Z,11.80
2023-08-08T00:37:14.740Z,11.79
2023-08-08T00:40:18.649Z,11.75
2023-08-08T00:43:22.444Z,11.74
2023-08-08T00:46:26.417Z,11.75
2023-08-08T00:49:31.495Z,11.75
2023-08-08T00:52:36.440Z,11.74
2023-08-08T00:55:40.852Z,11.74
2023-08-08T00:58:46.731Z,11.74
2023-08-08T01:01:50.487Z,11.71
2023-08-08T01:04:55.943Z,11.74
2023-08-08T01:08:07.153Z,11.72
2023-08-08T01:11:12.284Z,11.74
2023-08-08T01:14:17.490Z,11.76
2023-08-08T01:17:23.592Z,11.77
2023-08-08T01:20:28.996Z,11.75
2023-08-08T01:23:45.936Z,11.75
2023-08-08T01:26:51.706Z,11.83
2023-08-08T01:29:55.973Z,11.90
2023-08-08T01:32:59.691Z,11.93
2023-08-08T01:36:14.843Z,11.97
2023-08-08T01:39:29.007Z,11.98
2023-08-08T01:42:35.608Z,12.01
2023-08-08T01:45:39.882Z,12.05
2023-08-08T01:48:48.509Z,12.07
2023-08-08T01:51:53.510Z,12.12
2023-08-08T01:54:58.141Z,12.20
2023-08-08T01:58:03.217Z,12.21
2023-08-08T02:01:06.903Z,12.21
2023-08-08T02:04:10.653Z,12.21
2023-08-08T02:07:14.365Z,12.10
2023-08-08T02:10:18.586Z,12.05
2023-08-08T02:13:23.769Z,12.06
2023-08-08T02:16:27.448Z,11.97
2023-08-08T02:19:31.580Z,11.92
2023-08-08T02:22:35.527Z,11.89
2023-08-08T02:25:39.133Z,11.92
2023-08-08T02:28:44.581Z,11.94
2023-08-08T02:31:48.220Z,12.02
2023-08-08T02:34:51.952Z,11.98
2023-08-08T02:37:55.669Z,11.99
2023-08-08T02:40:59.497Z,12.01
2023-08-08T02:44:04.654Z,12.00
2023-08-08T02:47:08.816Z,12.05
2023-08-08T02:50:12.775Z,11.99
2023-08-08T02:53:16.521Z,12.04
2023-08-08T02:56:20.110Z,12.04
2023-08-08T02:59:25.307Z,12.06
2023-08-08T03:02:29.063Z,12.04
2023-08-08T03:05:32.956Z,12.04
2023-08-08T03:08:36.524Z,12.07
2023-08-08T03:11:42.605Z,12.05
2023-08-08T03:14:49.031Z,12.04
2023-08-08T03:17:52.722Z,12.04
2023-08-08T03:20:56.385Z,12.06
2023-08-08T03:24:00.379Z,12.04
2023-08-08T03:27:03.964Z,12.01
2023-08-08T03:30:11.121Z,12.03
2023-08-08T03:33:14.845Z,12.06
2023-08-08T03:36:18.606Z,12.11
2023-08-08T03:39:22.453Z,12.10
2023-08-08T03:42:26.226Z,12.07
2023-08-08T03:45:31.571Z,12.06
2023-08-08T03:48:35.287Z,12.08
2023-08-08T03:51:38.901Z,11.99
2023-08-08T03:54:42.494Z,12.02
2023-08-08T03:57:46.472Z,11.95
2023-08-08T04:00:51.902Z,12.00
2023-08-08T04:03:55.551Z,12.03
2023-08-08T04:06:59.642Z,11.97
2023-08-08T04:10:03.633Z,11.99
2023-08-08T04:13:07.271Z,11.93
2023-08-08T04:16:12.333Z,12.00
2023-08-08T04:19:15.981Z,12.06
2023-08-08T04:22:19.862Z,12.03
2023-08-08T04:25:23.627Z,12.03
2023-08-08T04:28:27.241Z,12.03
2023-08-08T04:31:32.269Z,12.12
2023-08-08T04:34:36.091Z,12.09
2023-08-08T04:37:40.044Z,12.11
2023-08-08T04:40:43.693Z,12.08
2023-08-08T04:43:47.272Z,12.22
2023-08-08T04:46:52.326Z,12.31
2023-08-08T04:49:56.527Z,12.34
2023-08-08T04:53:00.226Z,12.39
2023-08-08T04:56:03.853Z,12.48
2023-08-08T04:59:07.409Z,12.56
2023-08-08T05:02:12.491Z,12.64
2023-08-08T05:05:16.086Z,12.68
2023-08-08T05:08:19.941Z,12.73
2023-08-08T05:11:23.557Z,12.67
2023-08-08T05:14:27.152Z,12.68
2023-08-08T05:17:33.470Z,12.73
2023-08-08T05:20:37.015Z,12.79
2023-08-08T05:23:40.556Z,12.89
2023-08-08T05:26:44.198Z,12.91
2023-08-08T05:29:52.073Z,12.83
2023-08-08T05:32:57.072Z,12.89
2023-08-08T05:36:00.692Z,12.84
2023-08-08T05:39:08.067Z,12.97
2023-08-08T05:42:11.817Z,12.98
2023-08-08T05:45:15.433Z,13.00
2023-08-08T05:48:20.472Z,13.11
2023-08-08T05:51:24.169Z,13.07
2023-08-08T05:54:33.811Z,13.17
2023-08-08T05:57:43.535Z,13.24
2023-08-08T06:00:47.188Z,13.35
2023-08-08T06:03:52.589Z,13.34
2023-08-08T06:06:56.512Z,13.36
2023-08-08T06:10:05.776Z,13.33
2023-08-08T06:13:13.854Z,13.35
2023-08-08T06:16:23.685Z,13.40
2023-08-08T06:19:32.501Z,13.46
2023-08-08T06:22:36.021Z,13.53
2023-08-08T06:25:41.350Z,13.65
2023-08-08T06:28:45.453Z,13.90
2023-08-08T06:31:51.969Z,14.03
2023-08-08T06:34:57.347Z,13.95
2023-08-08T06:38:01.066Z,13.97
2023-08-08T06:41:05.765Z,14.03
2023-08-08T06:44:10.778Z,14.20
2023-08-08T06:47:14.422Z,14.34
2023-08-08T06:50:20.864Z,14.64
2023-08-08T06:53:25.059Z,14.57
2023-08-08T06:56:28.729Z,14.69
2023-08-08T06:59:32.239Z,15.20
2023-08-08T07:02:36.153Z,15.14
2023-08-08T07:05:41.222Z,15.54
2023-08-08T07:08:44.863Z,15.89
2023-08-08T07:11:48.894Z,15.71
2023-08-08T07:14:52.691Z,15.59
2023-08-08T07:17:56.331Z,15.37
2023-08-08T07:21:01.692Z,15.29
2023-08-08T07:24:06.061Z,15.75
2023-08-08T07:27:09.664Z,15.63
2023-08-08T07:30:15.316Z,15.58
2023-08-08T07:33:18.918Z,15.62
2023-08-08T07:36:24.260Z,15.56
2023-08-08T07:39:28.230Z,15.44
2023-08-08T07:42:31.835Z,15.29
2023-08-08T07:45:35.520Z,15.29
2023-08-08T07:48:39.425Z,14.87
2023-08-08T07:51:44.568Z,14.16
2023-08-08T07:54:48.490Z,14.17
2023-08-08T07:57:52.159Z,14.03
2023-08-08T08:00:56.132Z,13.99
2023-08-08T08:03:59.779Z,13.90
2023-08-08T08:07:05.029Z,13.75
2023-08-08T08:10:14.446Z,14.11
2023-08-08T08:13:18.208Z,14.75
2023-08-08T08:16:21.960Z,15.17
2023-08-08T08:19:26.256Z,15.48
2023-08-08T08:22:31.193Z,15.87
2023-08-08T08:25:34.707Z,16.10
2023-08-08T08:28:38.306Z,16.36
2023-08-08T08:31:41.889Z,15.85
2023-08-08T08:34:45.975Z,15.44
2023-08-08T08:37:51.673Z,15.12
2023-08-08T08:40:59.004Z,15.11
2023-08-08T08:44:03.502Z,15.08
2023-08-08T08:47:14.217Z,15.34
2023-08-08T08:50:20.805Z,15.97
2023-08-08T08:53:26.016Z,16.04
2023-08-08T08:56:30.488Z,16.27
2023-08-08T08:59:34.293Z,16.41
2023-08-08T09:02:38.943Z,17.21
2023-08-08T09:05:46.149Z,17.14
2023-08-08T09:08:53.489Z,16.62
2023-08-08T09:11:59.602Z,16.19
2023-08-08T09:15:06.654Z,16.18
2023-08-08T09:18:10.861Z,15.86
2023-08-08T09:21:16.859Z,16.36
2023-08-08T09:24:22.502Z,17.19
2023-08-08T09:27:26.319Z,17.80
2023-08-08T09:30:31.591Z,18.43
2023-08-08T09:33:37.463Z,17.89
2023-08-08T09:36:42.379Z,17.95
2023-08-08T09:39:47.592Z,18.13
2023-08-08T09:42:54.958Z,17.56
2023-08-08T09:45:58.769Z,17.01
2023-08-08T09:49:04.757Z,16.92
2023-08-08T09:52:09.789Z,16.91
2023-08-08T09:55:15.997Z,16.93
2023-08-08T09:58:20.028Z,17.52
2023-08-08T10:01:24.679Z,18.16
2023-08-08T10:04:29.300Z,17.13
2023-08-08T10:07:33.145Z,16.52
2023-08-08T10:10:40.043Z,16.13
2023-08-08T10:13:51.993Z,15.15
2023-08-08T10:16:56.415Z,14.70
2023-08-08T10:20:05.281Z,14.55
2023-08-08T10:23:09.645Z,14.58
2023-08-08T10:26:22.089Z,14.94
2023-08-08T10:29:28.738Z,15.04
2023-08-08T10:32:41.830Z,15.07
2023-08-08T10:35:59.021Z,15.55
2023-08-08T10:39:04.168Z,15.73
2023-08-08T10:42:09.863Z,16.66
2023-08-08T10:45:18.277Z,17.07
2023-08-08T10:48:22.034Z,17.37
2023-08-08T10:51:34.196Z,17.76
2023-08-08T10:54:39.547Z,18.00
2023-08-08T10:57:44.781Z,17.93
2023-08-08T11:00:49.287Z,18.14
2023-08-08T11:03:53.169Z,17.79
2023-08-08T11:06:57.534Z,17.24
2023-08-08T11:10:03.045Z,16.89
2023-08-08T11:13:10.561Z,16.80
2023-08-08T11:16:14.290Z,17.24
2023-08-08T11:19:20.475Z,17.02
2023-08-08T11:22:24.780Z,16.83
2023-08-08T11:25:31.517Z,16.51
2023-08-08T11:28:36.470Z,16.52
2023-08-08T11:31:41.138Z,15.01
2023-08-08T11:34:44.935Z,14.14
2023-08-08T11:37:48.861Z,13.92
2023-08-08T11:40:53.607Z,13.87
2023-08-08T11:43:59.154Z,13.72
2023-08-08T11:47:05.230Z,14.32
2023-08-08T11:50:13.306Z,14.75
2023-08-08T11:53:17.500Z,14.63
2023-08-08T11:56:22.799Z,14.47
2023-08-08T11:59:28.049Z,13.94
2023-08-08T12:02:39.972Z,13.58
2023-08-08T12:05:43.748Z,12.97
2023-08-08T12:08:49.858Z,12.78
2023-08-08T12:11:53.601Z,12.94
2023-08-08T12:18:06.733Z,13.58
2023-08-08T12:21:11.472Z,13.72
2023-08-08T12:24:15.084Z,13.99
2023-08-08T12:27:18.991Z,14.18
2023-08-08T12:30:24.117Z,14.33
2023-08-08T12:33:28.083Z,14.28
2023-08-08T12:36:31.751Z,14.63
2023-08-08T12:39:35.919Z,14.86
2023-08-08T12:42:39.520Z,14.94
2023-08-08T12:45:44.499Z,15.32
2023-08-08T12:48:48.332Z,15.18
2023-08-08T12:51:53.459Z,15.47
2023-08-08T12:54:57.096Z,15.67
2023-08-08T12:58:00.796Z,15.94
2023-08-08T13:01:05.785Z,15.73
2023-08-08T13:04:19.718Z,15.98
2023-08-08T13:07:24.038Z,16.07
2023-08-08T13:10:27.719Z,15.92
2023-08-08T13:13:31.540Z,16.22
2023-08-08T13:16:37.120Z,16.45
2023-08-08T13:19:40.665Z,16.79
2023-08-08T13:22:44.742Z,16.97
2023-08-08T13:25:50.269Z,17.09
2023-08-08T13:28:54.007Z,17.23
2023-08-08T13:31:59.430Z,17.45
2023-08-08T13:35:03.351Z,17.63
2023-08-08T13:38:08.174Z,17.41
2023-08-08T13:41:11.854Z,17.45
2023-08-08T13:44:15.359Z,17.48
2023-08-08T13:47:20.431Z,17.64
2023-08-08T13:50:26.955Z,17.76
2023-08-08T13:53:30.920Z,17.82
2023-08-08T13:56:34.559Z,18.13
2023-08-08T13:59:38.599Z,18.33
2023-08-08T14:02:43.712Z,18.06
2023-08-08T14:05:48.149Z,17.69
2023-08-08T14:08:53.402Z,17.38
2023-08-08T14:11:57.026Z,17.22
2023-08-08T14:15:00.628Z,16.91
2023-08-08T14:18:06.406Z,16.95
2023-08-08T14:21:10.149Z,16.95
2023-08-08T14:24:13.788Z,17.69
2023-08-08T14:27:17.430Z,17.89
2023-08-08T14:30:22.175Z,17.58
2023-08-08T14:33:27.287Z,17.15
2023-08-08T14:36:31.133Z,16.97
2023-08-08T14:39:34.820Z,16.68
2023-08-08T14:42:38.587Z,16.75
2023-08-08T14:45:42.292Z,16.90
2023-08-08T14:48:47.710Z,17.18
2023-08-08T14:51:51.296Z,17.57
2023-08-08T14:54:55.964Z,17.49
2023-08-08T14:57:59.630Z,17.25
2023-08-08T15:01:03.893Z,17.17
2023-08-08T15:04:09.116Z,17.14
2023-08-08T15:07:12.806Z,17.40
2023-08-08T15:10:16.368Z,17.42
2023-08-08T15:13:20.073Z,17.48
2023-08-08T15:16:23.658Z,16.79
2023-08-08T15:19:28.718Z,16.98
2023-08-08T15:22:32.221Z,17.46
2023-08-08T15:25:35.830Z,17.08
2023-08-08T15:28:41.758Z,17.43
2023-08-08T15:31:46.377Z,17.53
2023-08-08T15:34:51.544Z,17.73
2023-08-08T15:37:55.201Z,17.60
2023-08-08T15:40:59.140Z,17.54
2023-08-08T15:44:02.906Z,17.71
2023-08-08T15:47:07.300Z,17.49
2023-08-08T15:50:12.900Z,17.36
2023-08-08T15:53:16.442Z,17.76
2023-08-08T15:56:20.170Z,17.58
2023-08-08T15:59:23.793Z,17.59
2023-08-08T16:02:27.456Z,17.72
2023-08-08T16:05:32.404Z,17.74
2023-08-08T16:08:36.180Z,17.30
2023-08-08T16:11:39.749Z,17.45
2023-08-08T16:14:43.654Z,17.17
2023-08-08T16:17:47.922Z,17.18
2023-08-08T16:20:52.924Z,17.01
2023-08-08T16:23:56.594Z,16.81
2023-08-08T16:27:00.416Z,16.69
2023-08-08T16:30:05.067Z,16.46
2023-08-08T16:33:09.107Z,16.47
2023-08-08T16:36:15.916Z,16.64
2023-08-08T16:39:19.792Z,16.79
2023-08-08T16:42:23.582Z,16.96
2023-08-08T16:45:28.920Z,16.88
2023-08-08T16:48:32.857Z,16.90
2023-08-08T16:51:38.050Z,16.89
2023-08-08T16:54:42.467Z,16.93
2023-08-08T16:57:46.630Z,16.86
2023-08-08T17:00:54.712Z,16.83
2023-08-08T17:03:58.650Z,16.87
2023-08-08T17:07:03.865Z,16.75
2023-08-08T17:10:11.702Z,16.72
2023-08-08T17:13:15.400Z,16.63
2023-08-08T17:16:19.743Z,16.63
2023-08-08T17:19:23.909Z,16.47
2023-08-08T17:22:29.333Z,16.52
2023-08-08T17:25:36.739Z,16.43
2023-08-08T17:28:43.402Z,16.33
2023-08-08T17:31:47.272Z,16.27
2023-08-08T17:34:51.342Z,16.22
2023-08-08T17:37:56.823Z,16.19
2023-08-08T17:41:01.066Z,16.11
2023-08-08T17:44:06.164Z,16.01
2023-08-08T17:47:11.590Z,15.95
2023-08-08T17:50:15.222Z,15.86
2023-08-08T17:53:20.457Z,15.74
2023-08-08T17:56:24.156Z,15.66
2023-08-08T17:59:30.675Z,15.52
2023-08-08T18:02:34.913Z,15.35
2023-08-08T18:05:38.642Z,15.27
2023-08-08T18:08:43.844Z,15.21
2023-08-08T18:11:47.439Z,15.17
2023-08-08T18:14:54.090Z,15.12
2023-08-08T18:17:58.080Z,15.07
2023-08-08T18:21:01.725Z,15.09
2023-08-08T18:24:08.721Z,15.04
2023-08-08T18:27:12.587Z,14.88
2023-08-08T18:30:17.445Z,14.82
2023-08-08T18:33:21.002Z,14.74
2023-08-08T18:36:24.865Z,14.62
2023-08-08T18:39:29.960Z,14.63
2023-08-08T18:42:33.877Z,14.57
2023-08-08T18:45:37.588Z,14.47
2023-08-08T18:48:41.490Z,14.38
2023-08-08T18:51:45.063Z,14.37
2023-08-08T18:54:50.388Z,14.30
2023-08-08T18:57:53.956Z,14.24
2023-08-08T19:00:57.884Z,14.13
2023-08-08T19:04:02.431Z,13.99
2023-08-08T19:07:06.167Z,14.14
2023-08-08T19:10:12.208Z,14.02
2023-08-08T19:13:17.248Z,14.06
2023-08-08T19:16:21.126Z,13.97
2023-08-08T19:19:24.837Z,13.95
2023-08-08T19:22:28.864Z,13.93
2023-08-08T19:25:34.048Z,13.87
2023-08-08T19:28:40.835Z,13.77
2023-08-08T19:31:46.416Z,13.71
2023-08-08T19:34:53.636Z,13.58
2023-08-08T19:37:57.497Z,13.58
2023-08-08T19:41:02.614Z,13.47
2023-08-08T19:44:06.679Z,13.44
2023-08-08T19:47:10.263Z,13.49
2023-08-08T19:50:13.952Z,13.42
2023-08-08T19:53:18.289Z,13.37
2023-08-08T19:56:23.521Z,13.23
2023-08-08T19:59:27.156Z,13.19
2023-08-08T20:02:33.697Z,12.92
2023-08-08T20:05:37.440Z,12.93
2023-08-08T20:08:41.580Z,12.86
2023-08-08T20:11:46.703Z,12.86
2023-08-08T20:14:50.629Z,12.81
2023-08-08T20:17:54.412Z,12.83
2023-08-08T20:20:58.179Z,12.81
2023-08-08T20:24:01.875Z,12.78
2023-08-08T20:27:07.744Z,12.76
2023-08-08T20:30:13.388Z,12.72
2023-08-08T20:33:17.054Z,12.69
2023-08-08T20:36:20.859Z,12.61
2023-08-08T20:39:25.234Z,12.61
2023-08-08T20:42:30.626Z,12.63
2023-08-08T20:45:34.425Z,12.49
2023-08-08T20:48:38.094Z,12.61
2023-08-08T20:51:42.016Z,12.56
2023-08-08T20:54:45.586Z,12.52
2023-08-08T20:57:50.801Z,12.55
2023-08-08T21:00:54.544Z,12.48
2023-08-08T21:03:58.511Z,12.43
2023-08-08T21:07:02.501Z,12.41
2023-08-08T21:10:07.784Z,12.39
2023-08-08T21:13:12.851Z,12.43
2023-08-08T21:16:16.949Z,12.37
2023-08-08T21:19:20.594Z,12.38
2023-08-08T21:22:24.549Z,12.35
2023-08-08T21:25:28.486Z,12.30
2023-08-08T21:28:34.659Z,12.29
2023-08-08T21:31:38.304Z,12.25
2023-08-08T21:34:41.892Z,12.16
2023-08-08T21:37:45.613Z,12.19
2023-08-08T21:40:49.231Z,12.26
2023-08-08T21:43:54.269Z,12.27
2023-08-08T21:46:57.799Z,12.21
2023-08-08T21:50:01.416Z,12.13
2023-08-08T21:53:05.620Z,12.14
2023-08-08T21:56:09.164Z,12.18
2023-08-08T21:59:14.374Z,12.13
2023-08-08T22:02:18.081Z,12.13
2023-08-08T22:05:21.839Z,12.08
2023-08-08T22:08:25.439Z,12.03
2023-08-08T22:11:29.140Z,11.99
2023-08-08T22:14:34.570Z,12.00
2023-08-08T22:17:38.258Z,12.00
2023-08-08T22:20:42.542Z,11.98
2023-08-08T22:23:46.097Z,11.94
2023-08-08T22:26:49.799Z,11.95
2023-08-08T22:29:56.350Z,11.93
2023-08-08T22:33:00.314Z,11.95
2023-08-08T22:36:03.993Z,11.94
2023-08-08T22:39:07.529Z,11.94
2023-08-08T22:42:11.719Z,11.90
2023-08-08T22:45:36.712Z,11.90
2023-08-08T22:48:40.365Z,11.87
2023-08-08T22:51:43.939Z,11.80
2023-08-08T22:54:47.631Z,11.82
2023-08-08T22:57:51.302Z,11.74
2023-08-08T23:00:56.388Z,11.76
2023-08-08T23:03:59.950Z,11.74
2023-08-08T23:07:04.083Z,11.68
2023-08-08T23:10:09.265Z,11.64
2023-08-08T23:13:12.935Z,11.60
2023-08-08T23:16:18.087Z,11.56
2023-08-08T23:19:21.759Z,11.50
2023-08-08T23:22:25.406Z,11.57
2023-08-08T23:25:29.982Z,11.55
2023-08-08T23:28:33.800Z,11.54
2023-08-08T23:31:39.091Z,11.50
2023-08-08T23:34:42.717Z,11.43
2023-08-08T23:37:46.644Z,11.41
2023-08-08T23:40:50.235Z,11.37
2023-08-08T23:43:53.920Z,11.36
2023-08-08T23:46:59.148Z,11.34
2023-08-08T23:50:04.935Z,11.33
2023-08-08T23:53:08.893Z,11.35
2023-08-08T23:56:12.710Z,11.30
2023-08-08T23:59:16.402Z,11.25
